Abegondo, Spain
Current Conditions -  °F | °C
As of 1:00 AM on Wednesday 22 Oct 2014 (Local Time) from LECO Reporting Station
Broken Clouds Broken Clouds  
Wind Chill: 63°   Ceiling: 900
Heat Index: 63°   Visibility: 5mi
Dew Point: 61°   Wind: 0mph
Humidity: 94%   Direction: NA
Pressure: 30.42"   Gusts: NA
Location:  43.22°N, 8.28°W
Report Text: LECO 212300Z 00000KT 8000 BKN009 17/16 Q1030 NOSIG
Loading
Personal Weather Stations






























Interactive Weather Map
Tropical Storm Tracking
New forecast layout! Learn more

10-Day Weather Forecast

Advertisements
Track Severe Weather on mobile